ADDS TAF Data INFO
IDs: Format: Raw Decoded Include METARs

Data at: 1812 UTC 22 Jan 2018

KMGW 221753Z 19008G17KT 10SM FEW080 18/06 A2994 RMK AO2 SLP134 60000 T01830061 10183 20111 58035

KMGW 221723Z 2218/2318 16005KT P6SM BKN100
  FM230300 16006KT P6SM VCSH BKN080 WS020/19035KT
  FM230800 17008KT P6SM -SHRA SCT025 OVC035 WS020/21040KT
  FM231400 21010G22KT P6SM VCSH OVC035